Helene — V7VF9 — position and weather

sailwx.info

Track history (hours):
 
Tides and Currents Weather Stations Pressure Air Temp Water Temp Dewpoint Dewpoint Depression Visibility Wind Speed Wind Dir Waves Ship Positions

Helene

Last reported at 2017-Nov-09 11:00 UTC. Time now 2017-Nov-23 02:04 UTC.
Position S 24°57' W 046°49'.
Warning: this ship's position is 13 days out of date.

Length 207 m; draft 7.4 m.

Type: Cargo ship. MMSI: 538006866.

Date/timePositionNaut miles runAvg speedWind from/ knotsBaromVisibWave heightAir tempDewpointWater temp
2017-Nov-09 11:00S 24°57' W 046°49'919.3
2017-Nov-09 10:30S 24°50' W 046°43'1019.4
2017-Nov-09 10:01S 24°42' W 046°36'1019.5
2017-Nov-09 09:31S 24°34' W 046°31'1019.3
2017-Nov-09 09:01S 24°25' W 046°27'1019.4
2017-Nov-09 08:30S 24°15' W 046°25'1019.2
2017-Nov-09 08:01S 24°06' W 046°23'714.5
2017-Nov-09 07:30S 23°60' W 046°19'2 0.2
2017-Nov-08 20:29S 23°58' W 046°18'0 0.0
2017-Nov-08 19:05S 23°58' W 046°18'0 0.0
2017-Nov-08 16:37S 23°58' W 046°18'0 0.3
2017-Nov-08 16:30S 23°58' W 046°18'4 6.2
2017-Nov-08 15:53S 23°55' W 046°20'0 0.6
2017-Nov-08 15:14S 23°55' W 046°21'0 0.0
2017-Nov-08 14:47S 23°55' W 046°21'0 0.0
2017-Nov-08 14:29S 23°55' W 046°21'0 0.0
2017-Nov-08 13:53S 23°55' W 046°21'0 0.0
2017-Nov-08 13:29S 23°55' W 046°21'0 0.0
2017-Nov-08 12:59S 23°55' W 046°21'0 0.0
2017-Nov-08 11:29S 23°55' W 046°21'0 0.0
2017-Nov-08 09:32S 23°55' W 046°21'0 0.0
2017-Nov-08 09:17S 23°55' W 046°21'0 0.0
2017-Nov-08 08:47S 23°55' W 046°21'0 0.0
2017-Nov-08 08:29S 23°55' W 046°21'0 0.0
2017-Nov-08 07:53S 23°55' W 046°21'0 0.0
2017-Nov-08 07:29S 23°55' W 046°21'0 0.0
2017-Nov-08 04:53S 23°55' W 046°21'0 0.0
2017-Nov-08 04:23S 23°55' W 046°21'0 0.0
2017-Nov-08 03:04S 23°55' W 046°21'0 0.0
2017-Nov-07 23:43S 23°55' W 046°21'0 0.1
2017-Nov-07 23:22S 23°55' W 046°21'5 5.4
2017-Nov-07 22:26S 23°59' W 046°17'3 7.8
2017-Nov-07 22:00S 24°01' W 046°21'4 9.1
2017-Nov-07 21:31S 24°05' W 046°22'4 8.5
2017-Nov-07 21:00S 24°09' W 046°20'2 2.6
2017-Nov-07 20:25S 24°09' W 046°18'0 0.0
2017-Nov-07 19:58S 24°09' W 046°18'0 0.0
2017-Nov-07 19:25S 24°09' W 046°18'0 0.0
2017-Nov-07 18:55S 24°09' W 046°18'0 0.0
2017-Nov-07 18:25S 24°09' W 046°18'0 0.0
2017-Nov-07 17:55S 24°09' W 046°18'0 0.0
2017-Nov-07 17:25S 24°09' W 046°18'0 0.0
2017-Nov-07 16:58S 24°09' W 046°18'0 0.0
2017-Nov-07 16:25S 24°09' W 046°18'0 0.0
2017-Nov-07 15:58S 24°09' W 046°18'0 0.0
2017-Nov-07 15:16S 24°09' W 046°18'0 0.0
2017-Nov-07 14:58S 24°09' W 046°18'0 0.0
2017-Nov-07 14:25S 24°09' W 046°18'0 0.0
2017-Nov-07 13:55S 24°09' W 046°18'0 0.0
2017-Nov-07 13:25S 24°09' W 046°18'0 0.0
2017-Nov-07 12:55S 24°09' W 046°18'0 0.0
2017-Nov-07 12:25S 24°09' W 046°18'0 0.0
2017-Nov-07 11:58S 24°09' W 046°18'0 0.0
2017-Nov-07 11:13S 24°09' W 046°18'0 0.0
2017-Nov-07 10:58S 24°09' W 046°18'0 0.0
2017-Nov-07 10:28S 24°09' W 046°18'0 0.0
2017-Nov-07 09:58S 24°09' W 046°18'0 0.0
2017-Nov-07 09:25S 24°09' W 046°18'0 0.1
2017-Nov-07 09:01S 24°09' W 046°18'2 5.0
2017-Nov-07 08:30S 24°10' W 046°20'510.7
2017-Nov-07 08:00S 24°15' W 046°21'713.1
2017-Nov-07 07:30S 24°22' W 046°19'510.7
2017-Nov-07 07:00S 24°27' W 046°16'4 8.7
2017-Nov-07 06:31S 24°30' W 046°13'510.4
2017-Nov-07 06:00S 24°28' W 046°08'510.2
2017-Nov-07 05:29S 24°26' W 046°02'8 9.9
2017-Nov-07 04:39S 24°23' W 045°54'  
Track history (hours):
 
Tides and Currents Weather Stations Pressure Air Temp Water Temp Dewpoint Dewpoint Depression Visibility Wind Speed Wind Dir Waves Ship Positions

Helene

Last reported at 2017-Nov-09 11:00 UTC. Time now 2017-Nov-23 02:04 UTC.
Position S 24°57' W 046°49'.
Warning: this ship's position is 13 days out of date.

Length 207 m; draft 7.4 m.

Type: Cargo ship. MMSI: 538006866.

Date/timePositionNaut miles runAvg speedWind from/ knotsBaromVisibWave heightAir tempDewpointWater temp
2017-Nov-09 11:00S 24°57' W 046°49'919.3
2017-Nov-09 10:30S 24°50' W 046°43'1019.4
2017-Nov-09 10:01S 24°42' W 046°36'1019.5
2017-Nov-09 09:31S 24°34' W 046°31'1019.3
2017-Nov-09 09:01S 24°25' W 046°27'1019.4
2017-Nov-09 08:30S 24°15' W 046°25'1019.2
2017-Nov-09 08:01S 24°06' W 046°23'714.5
2017-Nov-09 07:30S 23°60' W 046°19'2 0.2
2017-Nov-08 20:29S 23°58' W 046°18'0 0.0
2017-Nov-08 19:05S 23°58' W 046°18'0 0.0
2017-Nov-08 16:37S 23°58' W 046°18'0 0.3
2017-Nov-08 16:30S 23°58' W 046°18'4 6.2
2017-Nov-08 15:53S 23°55' W 046°20'0 0.6
2017-Nov-08 15:14S 23°55' W 046°21'0 0.0
2017-Nov-08 14:47S 23°55' W 046°21'0 0.0
2017-Nov-08 14:29S 23°55' W 046°21'0 0.0
2017-Nov-08 13:53S 23°55' W 046°21'0 0.0
2017-Nov-08 13:29S 23°55' W 046°21'0 0.0
2017-Nov-08 12:59S 23°55' W 046°21'0 0.0
2017-Nov-08 11:29S 23°55' W 046°21'0 0.0
2017-Nov-08 09:32S 23°55' W 046°21'0 0.0
2017-Nov-08 09:17S 23°55' W 046°21'0 0.0
2017-Nov-08 08:47S 23°55' W 046°21'0 0.0
2017-Nov-08 08:29S 23°55' W 046°21'0 0.0
2017-Nov-08 07:53S 23°55' W 046°21'0 0.0
2017-Nov-08 07:29S 23°55' W 046°21'0 0.0
2017-Nov-08 04:53S 23°55' W 046°21'0 0.0
2017-Nov-08 04:23S 23°55' W 046°21'0 0.0
2017-Nov-08 03:04S 23°55' W 046°21'0 0.0
2017-Nov-07 23:43S 23°55' W 046°21'0 0.1
2017-Nov-07 23:22S 23°55' W 046°21'5 5.4
2017-Nov-07 22:26S 23°59' W 046°17'3 7.8
2017-Nov-07 22:00S 24°01' W 046°21'4 9.1
2017-Nov-07 21:31S 24°05' W 046°22'4 8.5
2017-Nov-07 21:00S 24°09' W 046°20'2 2.6
2017-Nov-07 20:25S 24°09' W 046°18'0 0.0
2017-Nov-07 19:58S 24°09' W 046°18'0 0.0
2017-Nov-07 19:25S 24°09' W 046°18'0 0.0
2017-Nov-07 18:55S 24°09' W 046°18'0 0.0
2017-Nov-07 18:25S 24°09' W 046°18'0 0.0
2017-Nov-07 17:55S 24°09' W 046°18'0 0.0
2017-Nov-07 17:25S 24°09' W 046°18'0 0.0
2017-Nov-07 16:58S 24°09' W 046°18'0 0.0
2017-Nov-07 16:25S 24°09' W 046°18'0 0.0
2017-Nov-07 15:58S 24°09' W 046°18'0 0.0
2017-Nov-07 15:16S 24°09' W 046°18'0 0.0
2017-Nov-07 14:58S 24°09' W 046°18'0 0.0
2017-Nov-07 14:25S 24°09' W 046°18'0 0.0
2017-Nov-07 13:55S 24°09' W 046°18'0 0.0
2017-Nov-07 13:25S 24°09' W 046°18'0 0.0
2017-Nov-07 12:55S 24°09' W 046°18'0 0.0
2017-Nov-07 12:25S 24°09' W 046°18'0 0.0
2017-Nov-07 11:58S 24°09' W 046°18'0 0.0
2017-Nov-07 11:13S 24°09' W 046°18'0 0.0
2017-Nov-07 10:58S 24°09' W 046°18'0 0.0
2017-Nov-07 10:28S 24°09' W 046°18'0 0.0
2017-Nov-07 09:58S 24°09' W 046°18'0 0.0
2017-Nov-07 09:25S 24°09' W 046°18'0 0.1
2017-Nov-07 09:01S 24°09' W 046°18'2 5.0
2017-Nov-07 08:30S 24°10' W 046°20'510.7
2017-Nov-07 08:00S 24°15' W 046°21'713.1
2017-Nov-07 07:30S 24°22' W 046°19'510.7
2017-Nov-07 07:00S 24°27' W 046°16'4 8.7
2017-Nov-07 06:31S 24°30' W 046°13'510.4
2017-Nov-07 06:00S 24°28' W 046°08'510.2
2017-Nov-07 05:29S 24°26' W 046°02'8 9.9
2017-Nov-07 04:39S 24°23' W 045°54'  

Dump ship's entire track history